createdAt,value
2022-11-18T00:01:33.122Z,13.31
2022-11-18T00:04:01.679Z,13.31
2022-11-18T00:06:31.246Z,13.30
2022-11-18T00:09:01.043Z,13.36
2022-11-18T00:11:47.704Z,13.33
2022-11-18T00:14:23.089Z,13.31
2022-11-18T00:16:54.285Z,13.31
2022-11-18T00:19:25.669Z,13.28
2022-11-18T00:21:53.828Z,13.29
2022-11-18T00:24:22.846Z,13.29
2022-11-18T00:26:51.392Z,13.29
2022-11-18T00:29:23.412Z,13.33
2022-11-18T00:31:51.590Z,13.26
2022-11-18T00:34:22.324Z,13.32
2022-11-18T00:36:51.126Z,13.32
2022-11-18T00:39:21.515Z,13.24
2022-11-18T00:42:07.483Z,13.23
2022-11-18T00:44:37.102Z,13.22
2022-11-18T00:47:05.873Z,13.20
2022-11-18T00:49:34.008Z,13.22
2022-11-18T00:52:02.191Z,13.27
2022-11-18T00:54:30.328Z,13.24
2022-11-18T00:56:58.392Z,13.21
2022-11-18T00:59:26.543Z,13.28
2022-11-18T01:01:55.967Z,13.25
2022-11-18T01:04:24.122Z,13.25
2022-11-18T01:06:52.219Z,13.23
2022-11-18T01:09:20.426Z,13.28
2022-11-18T01:12:06.252Z,13.30
2022-11-18T01:14:34.428Z,13.25
2022-11-18T01:17:04.000Z,13.26
2022-11-18T01:19:32.118Z,13.15
2022-11-18T01:22:03.001Z,13.08
2022-11-18T01:24:32.277Z,12.97
2022-11-18T01:27:00.419Z,12.92
2022-11-18T01:29:28.653Z,12.91
2022-11-18T01:32:22.637Z,12.82
2022-11-18T01:34:46.243Z,12.70
2022-11-18T01:37:14.368Z,12.59
2022-11-18T01:39:42.632Z,12.60
2022-11-18T01:42:17.047Z,12.60
2022-11-18T01:45:05.221Z,12.53
2022-11-18T01:47:38.373Z,12.47
2022-11-18T01:50:09.422Z,12.42
2022-11-18T01:52:38.790Z,12.38
2022-11-18T01:55:13.666Z,12.40
2022-11-18T01:57:43.202Z,12.45
2022-11-18T02:00:13.466Z,12.39
2022-11-18T02:02:41.606Z,12.35
2022-11-18T02:06:08.638Z,12.30
2022-11-18T02:08:39.415Z,12.31
2022-11-18T02:11:33.098Z,12.32
2022-11-18T02:14:03.531Z,12.32
2022-11-18T02:16:46.295Z,12.32
2022-11-18T02:19:50.269Z,12.31
2022-11-18T02:22:38.255Z,12.25
2022-11-18T02:25:19.435Z,12.17
2022-11-18T02:28:36.922Z,12.16
2022-11-18T02:31:15.199Z,12.19
2022-11-18T02:33:52.234Z,12.22
2022-11-18T02:36:26.081Z,12.19
2022-11-18T02:39:00.449Z,12.20
2022-11-18T02:41:33.430Z,12.30
2022-11-18T02:44:06.235Z,12.29
2022-11-18T02:46:39.418Z,12.22
2022-11-18T02:49:14.220Z,12.17
2022-11-18T02:51:44.261Z,12.15
2022-11-18T02:54:15.312Z,12.19
2022-11-18T02:56:44.804Z,12.18
2022-11-18T02:59:12.930Z,12.17
2022-11-18T03:01:42.474Z,12.27
2022-11-18T03:04:10.596Z,12.23
2022-11-18T03:06:41.596Z,12.13
2022-11-18T03:09:14.772Z,12.15
2022-11-18T03:11:55.107Z,12.15
2022-11-18T03:14:33.894Z,12.19
2022-11-18T03:17:10.762Z,12.16
2022-11-18T03:19:54.957Z,12.15
2022-11-18T03:22:29.310Z,12.01
2022-11-18T03:25:07.425Z,12.11
2022-11-18T03:27:42.940Z,12.11
2022-11-18T03:30:16.760Z,12.17
2022-11-18T03:32:53.365Z,12.28
2022-11-18T03:35:26.815Z,12.21
2022-11-18T03:38:02.465Z,12.14
2022-11-18T03:40:33.548Z,12.17
2022-11-18T03:43:07.438Z,12.11
2022-11-18T03:45:42.151Z,12.10
2022-11-18T03:48:17.256Z,12.08
2022-11-18T03:50:50.272Z,12.11
2022-11-18T03:53:21.539Z,12.08
2022-11-18T03:55:56.221Z,12.08
2022-11-18T03:58:30.892Z,12.04
2022-11-18T04:01:05.340Z,12.09
2022-11-18T04:03:34.884Z,12.06
2022-11-18T04:06:10.837Z,12.03
2022-11-18T04:08:43.486Z,12.03
2022-11-18T04:11:37.872Z,12.00
2022-11-18T04:14:09.323Z,11.88
2022-11-18T04:16:42.120Z,11.78
2022-11-18T04:19:12.014Z,11.76
2022-11-18T04:21:40.114Z,11.70
2022-11-18T04:24:09.186Z,11.54
2022-11-18T04:26:37.289Z,11.60
2022-11-18T04:29:05.443Z,11.59
2022-11-18T04:31:33.705Z,11.64
2022-11-18T04:34:01.827Z,11.66
2022-11-18T04:36:32.375Z,11.60
2022-11-18T04:39:00.556Z,11.58
2022-11-18T04:41:42.564Z,11.57
2022-11-18T04:44:13.328Z,11.56
2022-11-18T04:46:42.899Z,11.67
2022-11-18T04:49:13.647Z,11.63
2022-11-18T04:51:44.510Z,11.53
2022-11-18T04:54:13.837Z,11.58
2022-11-18T04:56:47.518Z,11.58
2022-11-18T04:59:20.485Z,11.53
2022-11-18T05:01:49.862Z,11.54
2022-11-18T05:04:20.346Z,11.54
2022-11-18T05:06:50.102Z,11.44
2022-11-18T05:09:19.988Z,11.45
2022-11-18T05:12:05.968Z,11.45
2022-11-18T05:14:34.692Z,11.41
2022-11-18T05:17:05.717Z,11.42
2022-11-18T05:19:33.854Z,11.42
2022-11-18T05:22:03.276Z,11.44
2022-11-18T05:24:31.475Z,11.45
2022-11-18T05:26:59.678Z,11.49
2022-11-18T05:29:27.828Z,11.48
2022-11-18T05:31:55.999Z,11.45
2022-11-18T05:34:24.571Z,11.44
2022-11-18T05:36:52.680Z,11.47
2022-11-18T05:39:22.137Z,11.43
2022-11-18T05:42:08.080Z,11.36
2022-11-18T05:44:36.335Z,11.35
2022-11-18T05:47:04.519Z,11.33
2022-11-18T05:49:32.617Z,11.40
2022-11-18T05:52:00.878Z,11.42
2022-11-18T05:54:30.658Z,11.35
2022-11-18T05:56:58.789Z,11.37
2022-11-18T05:59:26.919Z,11.37
2022-11-18T06:02:00.750Z,11.35
2022-11-18T06:04:35.837Z,11.37
2022-11-18T06:07:12.176Z,11.44
2022-11-18T06:09:44.642Z,11.40
2022-11-18T06:12:20.342Z,11.31
2022-11-18T06:14:53.698Z,11.36
2022-11-18T06:17:27.433Z,11.32
2022-11-18T06:19:55.688Z,11.22
2022-11-18T06:22:23.834Z,11.30
2022-11-18T06:24:53.454Z,11.31
2022-11-18T06:27:22.396Z,11.26
2022-11-18T06:29:50.525Z,11.20
2022-11-18T06:32:18.638Z,11.21
2022-11-18T06:34:46.802Z,11.20
2022-11-18T06:37:16.537Z,11.23
2022-11-18T06:39:44.826Z,11.24
2022-11-18T06:42:35.483Z,11.23
2022-11-18T06:45:09.050Z,11.25
2022-11-18T06:47:37.224Z,11.29
2022-11-18T06:50:06.779Z,11.26
2022-11-18T06:52:34.883Z,11.22
2022-11-18T06:55:06.142Z,11.18
2022-11-18T06:57:39.453Z,11.23
2022-11-18T07:00:09.525Z,11.26
2022-11-18T07:02:37.734Z,11.21
2022-11-18T07:05:07.264Z,11.22
2022-11-18T07:07:41.453Z,11.22
2022-11-18T07:10:11.005Z,11.16
2022-11-18T07:12:40.444Z,11.17
2022-11-18T07:15:10.069Z,11.13
2022-11-18T07:17:38.225Z,11.17
2022-11-18T07:20:07.609Z,11.20
2022-11-18T07:22:35.793Z,11.21
2022-11-18T07:25:03.873Z,11.18
2022-11-18T07:27:31.954Z,11.16
2022-11-18T07:30:01.498Z,11.24
2022-11-18T07:32:29.666Z,11.23
2022-11-18T07:34:57.812Z,11.27
2022-11-18T07:37:25.913Z,11.38
2022-11-18T07:39:54.020Z,11.28
2022-11-18T07:42:22.225Z,11.26
2022-11-18T07:44:50.428Z,11.25
2022-11-18T07:47:19.953Z,11.27
2022-11-18T07:49:47.955Z,11.32
2022-11-18T07:52:16.133Z,11.35
2022-11-18T07:54:44.251Z,11.22
2022-11-18T07:57:12.348Z,11.17
2022-11-18T07:59:40.402Z,11.24
2022-11-18T08:02:12.002Z,11.28
2022-11-18T08:04:41.565Z,11.41
2022-11-18T08:07:11.486Z,11.42
2022-11-18T08:09:39.601Z,11.36
2022-11-18T08:12:08.315Z,11.35
2022-11-18T08:14:36.517Z,11.37
2022-11-18T08:17:04.783Z,11.40
2022-11-18T08:19:35.205Z,11.36
2022-11-18T08:22:04.681Z,11.37
2022-11-18T08:24:32.833Z,11.30
2022-11-18T08:27:00.989Z,11.37
2022-11-18T08:29:29.673Z,11.34
2022-11-18T08:31:58.103Z,11.42
2022-11-18T08:34:26.240Z,11.54
2022-11-18T08:36:54.409Z,11.59
2022-11-18T08:39:23.889Z,11.53
2022-11-18T08:41:52.225Z,11.56
2022-11-18T08:44:20.402Z,11.67
2022-11-18T08:46:48.794Z,11.64
2022-11-18T08:49:17.336Z,11.72
2022-11-18T08:51:45.637Z,11.75
2022-11-18T08:54:13.784Z,11.71
2022-11-18T08:56:43.274Z,11.69
2022-11-18T08:59:11.612Z,11.75
2022-11-18T09:01:41.819Z,11.72
2022-11-18T09:04:10.358Z,11.72
2022-11-18T09:06:40.339Z,11.71
2022-11-18T09:09:09.216Z,11.72
2022-11-18T09:11:40.857Z,11.83
2022-11-18T09:15:11.756Z,11.89
2022-11-18T09:17:02.063Z,11.87
2022-11-18T09:22:18.240Z,11.95
2022-11-18T09:24:46.400Z,11.92
2022-11-18T09:27:17.295Z,11.95
2022-11-18T09:29:47.367Z,11.99
2022-11-18T09:32:15.707Z,11.99
2022-11-18T09:34:43.826Z,12.01
2022-11-18T09:37:12.882Z,12.07
2022-11-18T09:39:40.980Z,12.17
2022-11-18T09:42:41.951Z,12.17
2022-11-18T09:45:25.287Z,12.12
2022-11-18T09:47:57.734Z,12.19
2022-11-18T09:53:21.612Z,12.24
2022-11-18T09:55:52.361Z,12.24
2022-11-18T09:58:33.659Z,12.27
2022-11-18T10:01:04.422Z,12.25
2022-11-18T10:03:34.576Z,12.33
2022-11-18T10:06:19.177Z,12.30
2022-11-18T10:09:05.576Z,12.19
2022-11-18T10:11:43.396Z,12.19
2022-11-18T10:14:30.471Z,12.27
2022-11-18T10:17:12.753Z,12.24
2022-11-18T10:19:47.299Z,12.25
2022-11-18T10:22:24.879Z,12.31
2022-11-18T10:24:55.927Z,12.20
2022-11-18T10:27:27.942Z,12.24
2022-11-18T10:29:59.184Z,12.24
2022-11-18T10:32:29.009Z,12.30
2022-11-18T10:34:59.750Z,12.33
2022-11-18T10:37:52.999Z,12.41
2022-11-18T10:40:28.361Z,12.44
2022-11-18T10:42:56.935Z,12.36
2022-11-18T10:45:31.071Z,12.47
2022-11-18T10:48:03.928Z,12.48
2022-11-18T10:50:36.074Z,12.48
2022-11-18T10:53:05.488Z,12.47
2022-11-18T10:55:34.702Z,12.54
2022-11-18T10:58:10.241Z,12.52
2022-11-18T11:00:45.266Z,12.39
2022-11-18T11:03:36.987Z,12.42
2022-11-18T11:06:31.614Z,12.33
2022-11-18T11:09:05.482Z,12.25
2022-11-18T11:11:36.423Z,12.16
2022-11-18T11:14:23.579Z,12.27
2022-11-18T11:17:00.476Z,12.29
2022-11-18T11:19:49.173Z,12.29
2022-11-18T11:22:18.163Z,12.33
2022-11-18T11:24:46.597Z,12.24
2022-11-18T11:30:43.675Z,12.29
2022-11-18T11:33:32.224Z,12.21
2022-11-18T11:36:17.597Z,12.16
2022-11-18T11:39:15.880Z,12.18
2022-11-18T11:41:55.227Z,12.23
2022-11-18T11:44:41.591Z,12.22
2022-11-18T11:47:39.081Z,12.13
2022-11-18T11:50:16.498Z,12.13
2022-11-18T11:52:57.505Z,12.24
2022-11-18T11:55:33.750Z,12.18
2022-11-18T11:58:20.393Z,12.19
2022-11-18T12:00:58.556Z,12.18
2022-11-18T12:03:51.407Z,12.18
2022-11-18T12:06:20.718Z,12.25
2022-11-18T12:09:04.954Z,12.32
2022-11-18T12:11:42.321Z,12.36
2022-11-18T12:14:23.854Z,12.27
2022-11-18T12:16:59.759Z,12.25
2022-11-18T12:19:28.805Z,12.20
2022-11-18T12:22:00.475Z,12.21
2022-11-18T12:24:34.250Z,12.17
2022-11-18T12:27:05.133Z,12.25
2022-11-18T12:30:01.580Z,12.19
2022-11-18T12:32:42.504Z,12.16
2022-11-18T12:35:28.264Z,12.20
2022-11-18T12:38:03.042Z,12.23
2022-11-18T12:40:49.040Z,12.30
2022-11-18T12:44:05.999Z,12.28
2022-11-18T12:46:56.506Z,12.37
2022-11-18T12:50:14.795Z,12.39
2022-11-18T12:52:54.534Z,12.46
2022-11-18T12:55:31.845Z,12.32
2022-11-18T12:58:01.525Z,12.33
2022-11-18T13:00:52.168Z,12.32
2022-11-18T13:03:28.786Z,12.33
2022-11-18T13:06:03.699Z,12.36
2022-11-18T13:08:32.132Z,12.43
2022-11-18T13:11:28.838Z,12.45
2022-11-18T13:14:12.599Z,12.37
2022-11-18T13:16:58.539Z,12.38
2022-11-18T13:19:27.361Z,12.41
2022-11-18T13:22:13.740Z,12.27
2022-11-18T13:24:47.763Z,12.22
2022-11-18T13:27:34.081Z,12.25
2022-11-18T13:30:08.409Z,12.36
2022-11-18T13:32:36.718Z,12.41
2022-11-18T13:35:14.431Z,12.45
2022-11-18T13:37:52.238Z,12.41
2022-11-18T13:40:25.179Z,12.39
2022-11-18T13:42:53.555Z,12.35
2022-11-18T13:45:28.086Z,12.30
2022-11-18T13:48:02.376Z,12.33
2022-11-18T13:50:36.375Z,12.46
2022-11-18T13:53:24.493Z,12.47
2022-11-18T13:55:55.491Z,12.48
2022-11-18T13:59:02.591Z,12.56
2022-11-18T14:01:30.490Z,12.48
2022-11-18T14:04:02.206Z,12.51
2022-11-18T14:06:33.789Z,12.52
2022-11-18T14:09:08.796Z,12.48
2022-11-18T14:11:40.036Z,12.46
2022-11-18T14:14:09.590Z,12.47
2022-11-18T14:16:41.407Z,12.41
2022-11-18T14:19:29.661Z,12.37
2022-11-18T14:22:10.004Z,12.29
2022-11-18T14:24:41.953Z,12.23
2022-11-18T14:27:39.324Z,12.28
2022-11-18T14:30:31.914Z,12.31
2022-11-18T14:33:24.177Z,12.33
2022-11-18T14:35:58.018Z,12.31
2022-11-18T14:38:47.700Z,12.36
2022-11-18T14:41:43.906Z,12.31
2022-11-18T14:44:13.790Z,12.26
2022-11-18T14:46:44.793Z,12.23
2022-11-18T14:49:18.265Z,12.25
2022-11-18T14:51:47.305Z,12.21
2022-11-18T14:54:22.322Z,12.26
2022-11-18T14:56:58.021Z,12.23
2022-11-18T14:59:26.198Z,12.17
2022-11-18T15:01:54.377Z,12.10
2022-11-18T15:04:23.960Z,12.18
2022-11-18T15:06:52.172Z,12.17
2022-11-18T15:09:20.496Z,12.12
2022-11-18T15:11:48.942Z,12.11
2022-11-18T15:14:17.494Z,12.08
2022-11-18T15:16:46.136Z,12.05
2022-11-18T15:19:16.822Z,11.99
2022-11-18T15:21:46.401Z,12.02
2022-11-18T15:24:14.770Z,12.14
2022-11-18T15:26:45.129Z,12.15
2022-11-18T15:29:18.783Z,12.05
2022-11-18T15:31:47.455Z,12.04
2022-11-18T15:34:17.304Z,11.95
2022-11-18T15:36:47.561Z,11.97
2022-11-18T15:39:15.718Z,11.91
2022-11-18T15:41:44.209Z,11.85
2022-11-18T15:44:12.829Z,11.83
2022-11-18T15:46:41.197Z,11.83
2022-11-18T15:49:13.579Z,11.80
2022-11-18T15:51:42.039Z,11.79
2022-11-18T15:54:11.668Z,11.81
2022-11-18T15:56:41.491Z,11.73
2022-11-18T15:59:12.740Z,11.77
2022-11-18T16:01:43.674Z,11.70
2022-11-18T16:04:17.049Z,11.59
2022-11-18T16:06:45.988Z,11.58
2022-11-18T16:09:17.498Z,11.60
2022-11-18T16:12:06.155Z,11.47
2022-11-18T16:14:38.037Z,11.45
2022-11-18T16:17:06.122Z,11.35
2022-11-18T16:19:34.329Z,11.30
2022-11-18T16:22:02.442Z,11.26
2022-11-18T16:24:31.991Z,11.29
2022-11-18T16:27:00.117Z,11.28
2022-11-18T16:29:28.525Z,11.35
2022-11-18T16:31:55.792Z,11.28
2022-11-18T16:34:26.878Z,11.33
2022-11-18T16:36:57.446Z,11.35
2022-11-18T16:39:27.691Z,11.39
2022-11-18T16:42:06.885Z,11.41
2022-11-18T16:44:36.429Z,11.34
2022-11-18T16:47:10.813Z,11.36
2022-11-18T16:49:42.653Z,11.24
2022-11-18T16:52:10.782Z,11.25
2022-11-18T16:54:44.881Z,11.27
2022-11-18T16:57:15.652Z,11.23
2022-11-18T16:59:43.989Z,11.14
2022-11-18T17:02:14.663Z,11.06
2022-11-18T17:04:42.901Z,10.97
2022-11-18T17:07:11.154Z,10.99
2022-11-18T17:09:39.561Z,10.94
2022-11-18T17:12:08.787Z,10.92
2022-11-18T17:14:39.910Z,10.93
2022-11-18T17:17:08.826Z,10.91
2022-11-18T17:19:36.969Z,10.84
2022-11-18T17:22:05.064Z,10.89
2022-11-18T17:24:33.398Z,10.90
2022-11-18T17:27:01.554Z,10.94
2022-11-18T17:29:29.869Z,10.94
2022-11-18T17:31:59.689Z,10.95
2022-11-18T17:34:27.786Z,10.90
2022-11-18T17:36:56.816Z,10.92
2022-11-18T17:39:27.367Z,10.96
2022-11-18T17:42:13.263Z,10.93
2022-11-18T17:44:41.512Z,10.95
2022-11-18T17:47:11.083Z,10.92
2022-11-18T17:49:39.341Z,10.89
2022-11-18T17:52:07.457Z,10.99
2022-11-18T17:54:35.600Z,10.86
2022-11-18T17:57:03.897Z,10.88
2022-11-18T17:59:32.683Z,10.85
2022-11-18T18:02:01.242Z,10.77
2022-11-18T18:04:31.067Z,10.76
2022-11-18T18:06:59.568Z,10.65
2022-11-18T18:09:30.884Z,10.63
2022-11-18T18:12:21.201Z,10.54
2022-11-18T18:14:48.439Z,10.51
2022-11-18T18:17:17.036Z,10.47
2022-11-18T18:19:46.464Z,10.48
2022-11-18T18:22:14.580Z,10.51
2022-11-18T18:24:42.705Z,10.47
2022-11-18T18:27:10.922Z,10.46
2022-11-18T18:29:38.966Z,10.40
2022-11-18T18:32:07.093Z,10.35
2022-11-18T18:34:35.827Z,10.44
2022-11-18T18:37:05.428Z,10.38
2022-11-18T18:39:33.569Z,10.44
2022-11-18T18:42:03.505Z,10.42
2022-11-18T18:44:54.522Z,10.51
2022-11-18T18:47:22.081Z,10.45
2022-11-18T18:49:50.390Z,10.26
2022-11-18T18:52:20.091Z,10.26
2022-11-18T18:54:48.290Z,10.25
2022-11-18T18:57:16.737Z,10.23
2022-11-18T18:59:44.883Z,10.16
2022-11-18T19:02:13.888Z,10.24
2022-11-18T19:04:44.758Z,10.28
2022-11-18T19:07:12.985Z,10.25
2022-11-18T19:09:42.628Z,10.26
2022-11-18T19:12:29.164Z,10.32
2022-11-18T19:14:57.440Z,10.26
2022-11-18T19:17:25.934Z,10.25
2022-11-18T19:20:12.116Z,10.15
2022-11-18T19:22:40.383Z,10.05
2022-11-18T19:25:10.962Z,10.12
2022-11-18T19:27:40.369Z,10.05
2022-11-18T19:30:11.345Z,10.13
2022-11-18T19:32:41.964Z,10.24
2022-11-18T19:35:11.272Z,10.25
2022-11-18T19:37:39.573Z,10.28
2022-11-18T19:40:11.525Z,10.30
2022-11-18T19:42:40.741Z,10.32
2022-11-18T19:45:10.598Z,10.40
2022-11-18T19:47:39.514Z,10.45
2022-11-18T19:50:09.139Z,10.44
2022-11-18T19:52:37.333Z,10.42
2022-11-18T19:55:07.852Z,10.50
2022-11-18T19:57:37.455Z,10.57
2022-11-18T20:00:06.950Z,10.57
2022-11-18T20:02:39.299Z,10.53
2022-11-18T20:05:26.581Z,10.58
2022-11-18T20:07:56.793Z,10.59
2022-11-18T20:10:24.953Z,10.62
2022-11-18T20:12:56.149Z,10.62
2022-11-18T20:15:24.388Z,10.63
2022-11-18T20:17:52.797Z,10.62
2022-11-18T20:20:21.204Z,10.56
2022-11-18T20:22:49.345Z,10.59
2022-11-18T20:25:17.891Z,10.63
2022-11-18T20:27:46.141Z,10.64
2022-11-18T20:30:17.557Z,10.59
2022-11-18T20:32:46.662Z,10.58
2022-11-18T20:35:15.642Z,10.56
2022-11-18T20:37:43.711Z,10.52
2022-11-18T20:40:12.938Z,10.58
2022-11-18T20:42:58.926Z,10.56
2022-11-18T20:45:28.399Z,10.59
2022-11-18T20:47:56.525Z,10.62
2022-11-18T20:50:24.575Z,10.61
2022-11-18T20:52:52.642Z,10.57
2022-11-18T20:55:21.340Z,10.59
2022-11-18T20:57:49.576Z,10.51
2022-11-18T21:00:18.965Z,10.58
2022-11-18T21:02:48.469Z,10.49
2022-11-18T21:05:16.735Z,10.46
2022-11-18T21:07:44.961Z,10.48
2022-11-18T21:10:13.159Z,10.48
2022-11-18T21:13:01.678Z,10.52
2022-11-18T21:15:28.814Z,10.48
2022-11-18T21:17:58.241Z,10.48
2022-11-18T21:20:42.938Z,10.62
2022-11-18T21:23:12.349Z,10.65
2022-11-18T21:25:41.071Z,10.63
2022-11-18T21:28:09.133Z,10.61
2022-11-18T21:30:37.609Z,10.69
2022-11-18T21:33:07.473Z,10.73
2022-11-18T21:35:36.012Z,10.65
2022-11-18T21:38:05.782Z,10.66
2022-11-18T21:40:33.904Z,10.70
2022-11-18T21:43:02.173Z,10.68
2022-11-18T21:45:30.216Z,10.69
2022-11-18T21:47:58.372Z,10.72
2022-11-18T21:50:27.824Z,10.68
2022-11-18T21:52:55.953Z,10.79
2022-11-18T21:55:24.045Z,10.76
2022-11-18T21:57:52.112Z,10.81
2022-11-18T22:00:20.498Z,10.80
2022-11-18T22:02:48.638Z,10.78
2022-11-18T22:05:16.730Z,10.76
2022-11-18T22:07:46.343Z,10.76
2022-11-18T22:10:14.737Z,10.72
2022-11-18T22:12:42.834Z,10.75
2022-11-18T22:15:11.814Z,10.72
2022-11-18T22:17:40.054Z,10.76
2022-11-18T22:20:10.006Z,10.73
2022-11-18T22:22:38.123Z,10.80
2022-11-18T22:25:08.380Z,10.69
2022-11-18T22:27:36.902Z,10.65
2022-11-18T22:30:06.272Z,10.72
2022-11-18T22:32:34.456Z,10.70
2022-11-18T22:35:03.078Z,10.71
2022-11-18T22:37:31.208Z,10.73
2022-11-18T22:39:59.302Z,10.68
2022-11-18T22:42:46.354Z,10.76
2022-11-18T22:45:14.865Z,10.67
2022-11-18T22:47:43.142Z,10.67
2022-11-18T22:50:11.979Z,10.64
2022-11-18T22:52:41.225Z,10.65
2022-11-18T22:55:10.522Z,10.69
2022-11-18T22:57:40.077Z,10.67
2022-11-18T23:00:10.524Z,10.74
2022-11-18T23:02:38.626Z,10.73
2022-11-18T23:05:08.154Z,10.57
2022-11-18T23:07:36.346Z,10.67
2022-11-18T23:10:05.322Z,10.72
2022-11-18T23:12:51.097Z,10.76
2022-11-18T23:15:20.692Z,10.79
2022-11-18T23:17:48.766Z,10.77
2022-11-18T23:20:17.565Z,10.79
2022-11-18T23:22:45.872Z,10.76
2022-11-18T23:25:14.460Z,10.75
2022-11-18T23:27:42.578Z,10.73
2022-11-18T23:30:12.261Z,10.72
2022-11-18T23:32:41.682Z,10.74
2022-11-18T23:35:10.253Z,10.74
2022-11-18T23:37:38.328Z,10.72
2022-11-18T23:40:08.200Z,10.72
2022-11-18T23:42:36.272Z,10.70
2022-11-18T23:45:05.557Z,10.68
2022-11-18T23:47:33.977Z,10.70
2022-11-18T23:50:03.396Z,10.68
2022-11-18T23:52:31.430Z,10.71
2022-11-18T23:55:01.347Z,10.71
2022-11-18T23:57:29.436Z,10.68
2022-11-18T23:59:57.496Z,10.69
